Time;durP1;ratioP1;P1;durP2;ratioP2;P2;SDS_P1;SDS_P2;PMS_P1;PMS_P2;Temp;Humidity;BMP_temperature;BMP_pressure;BME280_temperature;BME280_humidity;BME280_pressure;Samples;Min_cycle;Max_cycle;Signal;HPM_P1;HPM_P2
2022/11/13 00:01:23;;;;;;;29.67;19.27;;;20.40;99.90;;;;;;5050899;28;20258;-69
2022/11/13 00:03:51;;;;;;;24.30;18.27;;;20.30;99.90;;;;;;5052377;28;20176;-71
2022/11/13 00:06:19;;;;;;;26.93;18.63;;;20.40;99.90;;;;;;5052300;28;20514;-70
2022/11/13 00:08:48;;;;;;;28.63;18.70;;;20.50;99.90;;;;;;5067421;28;20180;-71
2022/11/13 00:11:20;;;;;;;29.10;19.17;;;20.50;99.90;;;;;;5052206;28;20354;-70
2022/11/13 00:13:48;;;;;;;24.57;18.67;;;20.60;99.90;;;;;;5052095;28;20171;-74
2022/11/13 00:16:21;;;;;;;33.70;19.37;;;20.70;99.90;;;;;;5051783;28;20714;-77
2022/11/13 00:18:49;;;;;;;27.87;19.30;;;20.80;99.90;;;;;;5052053;28;20177;-76
2022/11/13 00:21:22;;;;;;;29.60;19.80;;;20.90;99.90;;;;;;5067285;28;20188;-68
2022/11/13 00:23:50;;;;;;;27.07;19.63;;;20.90;99.90;;;;;;5052075;28;20175;-70
2022/11/13 00:26:21;;;;;;;25.43;19.03;;;20.90;99.90;;;;;;5051878;28;20259;-78
2022/11/13 00:29:00;;;;;;;30.43;18.10;;;21.00;99.90;;;;;;5052243;28;20760;-70
2022/11/13 00:31:28;;;;;;;23.67;17.83;;;20.80;99.90;;;;;;5052053;28;20176;-69
2022/11/13 00:33:59;;;;;;;32.60;18.20;;;20.80;99.90;;;;;;5051939;28;20180;-69
2022/11/13 00:36:28;;;;;;;25.87;17.03;;;21.10;99.90;;;;;;5067385;28;20224;-75
2022/11/13 00:38:56;;;;;;;24.23;17.27;;;21.20;99.90;;;;;;5051965;28;20987;-72
2022/11/13 00:41:24;;;;;;;27.87;18.07;;;21.30;99.90;;;;;;5051806;28;20181;-72
2022/11/13 00:43:52;;;;;;;25.47;17.83;;;21.30;99.90;;;;;;5052132;28;20173;-75
2022/11/13 00:46:20;;;;;;;24.57;17.30;;;21.10;99.90;;;;;;5052108;28;20178;-77
2022/11/13 00:48:48;;;;;;;30.77;17.77;;;21.10;99.90;;;;;;5051736;28;20169;-70
2022/11/13 00:51:16;;;;;;;23.83;16.63;;;21.10;99.90;;;;;;5050812;28;20276;-72
2022/11/13 00:53:43;;;;;;;24.50;17.33;;;21.10;99.90;;;;;;5053677;28;20540;-71
2022/11/13 00:56:11;;;;;;;25.43;16.53;;;21.00;99.90;;;;;;5051835;28;20225;-75
2022/11/13 00:58:39;;;;;;;21.33;17.10;;;20.80;99.90;;;;;;5051535;28;20592;-74
2022/11/13 01:01:16;;;;;;;24.70;18.00;;;20.60;99.90;;;;;;5051432;28;20311;-78
2022/11/13 01:03:44;;;;;;;26.97;17.23;;;20.50;99.90;;;;;;5051692;28;20180;-74
2022/11/13 01:06:15;;;;;;;23.27;17.07;;;20.60;99.90;;;;;;5051440;28;20242;-75
2022/11/13 01:08:43;;;;;;;30.63;19.43;;;20.60;99.90;;;;;;5056339;28;20354;-74
2022/11/13 01:11:19;;;;;;;26.20;18.77;;;20.70;99.90;;;;;;5062922;28;20176;-74
2022/11/13 01:13:49;;;;;;;30.33;19.27;;;20.90;99.90;;;;;;5051661;28;20173;-76
2022/11/13 01:16:18;;;;;;;26.60;18.77;;;21.20;99.90;;;;;;5051272;28;20637;-75
2022/11/13 01:18:46;;;;;;;25.00;17.17;;;21.50;99.90;;;;;;5067016;28;20232;-76
2022/11/13 01:21:20;;;;;;;19.00;15.77;;;21.70;99.90;;;;;;5051308;28;20192;-74
2022/11/13 01:23:48;;;;;;;18.77;15.20;;;22.00;99.90;;;;;;5050638;28;20238;-75
2022/11/13 01:26:25;;;;;;;19.70;15.63;;;22.60;99.90;;;;;;5051446;28;20199;-78
2022/11/13 01:28:54;;;;;;;16.60;13.53;;;23.20;99.90;;;;;;5031748;28;20188;-75
2022/11/13 01:31:25;;;;;;;16.83;12.43;;;23.60;99.90;;;;;;5030354;28;20204;-77
2022/11/13 01:33:53;;;;;;;14.90;12.37;;;24.10;99.90;;;;;;5031848;28;20274;-78
2022/11/13 01:36:26;;;;;;;14.07;11.30;;;24.40;99.90;;;;;;5083148;28;20224;-78
2022/11/13 01:38:55;;;;;;;14.67;10.83;;;24.30;99.90;;;;;;5059296;28;20199;-74
2022/11/13 01:41:32;;;;;;;12.40;11.17;;;24.50;99.90;;;;;;5070450;28;20196;-79
2022/11/13 01:44:01;;;;;;;12.07;10.77;;;24.40;99.90;;;;;;5056742;28;20279;-75
2022/11/13 01:46:38;;;;;;;13.23;9.57;;;24.90;99.90;;;;;;5058821;28;20172;-77
2022/11/13 01:49:11;;;;;;;11.87;8.43;;;25.50;99.90;;;;;;5067773;28;20183;-77
2022/11/13 01:51:48;;;;;;;9.17;7.63;;;26.20;99.90;;;;;;5074452;28;20176;-77
2022/11/13 01:54:46;;;;;;;11.60;9.57;;;26.10;99.90;;;;;;5075306;28;20518;-75
2022/11/13 01:57:14;;;;;;;12.23;8.40;;;26.20;99.90;;;;;;5075873;28;20188;-78
2022/11/13 01:59:49;;;;;;;8.40;6.47;;;26.30;99.90;;;;;;5075991;28;20212;-76
2022/11/13 02:02:17;;;;;;;11.20;7.67;;;26.40;99.90;;;;;;5075350;28;20216;-76
2022/11/13 02:04:45;;;;;;;11.00;7.13;;;26.00;99.90;;;;;;5055770;28;20646;-77
2022/11/13 02:07:19;;;;;;;9.97;6.33;;;25.80;99.90;;;;;;5069926;28;20241;-77
2022/11/13 02:09:56;;;;;;;5.43;4.33;;;26.20;99.90;;;;;;5042868;28;20195;-76
2022/11/13 02:12:39;;;;;;;8.37;5.33;;;26.40;99.90;;;;;;5075923;28;20180;-78
2022/11/13 02:15:08;;;;;;;5.47;4.70;;;26.70;99.90;;;;;;5070262;28;20235;-68
2022/11/13 02:17:48;;;;;;;9.33;4.83;;;26.60;99.90;;;;;;5075311;28;20226;-69
2022/11/13 02:20:20;;;;;;;6.97;5.50;;;26.60;99.90;;;;;;5075480;28;20286;-69
2022/11/13 02:23:15;;;;;;;6.47;5.33;;;26.30;99.90;;;;;;5075737;28;20659;-68
2022/11/13 02:25:46;;;;;;;5.63;4.30;;;26.40;99.90;;;;;;5091107;28;20543;-68
2022/11/13 02:28:14;;;;;;;8.37;4.67;;;26.40;99.90;;;;;;5075508;28;20234;-68
2022/11/13 02:30:42;;;;;;;8.73;4.90;;;26.80;99.90;;;;;;5075469;28;20172;-68
2022/11/13 02:33:33;;;;;;;7.60;4.17;;;27.10;99.90;;;;;;5075557;28;20274;-68
2022/11/13 02:36:01;;;;;;;7.53;4.10;;;26.50;99.90;;;;;;5075266;28;20216;-69
2022/11/13 02:38:30;;;;;;;5.90;4.37;;;26.60;99.90;;;;;;5090747;28;20176;-69
2022/11/13 02:40:58;;;;;;;6.47;4.87;;;26.80;99.90;;;;;;5075094;28;20183;-69
2022/11/13 02:43:25;;;;;;;6.40;5.20;;;26.80;99.90;;;;;;5075270;28;20313;-68
2022/11/13 02:45:53;;;;;;;5.73;4.40;;;26.80;99.90;;;;;;5074996;28;20168;-69
2022/11/13 02:48:21;;;;;;;5.77;3.70;;;26.90;99.90;;;;;;5074984;28;20171;-69
2022/11/13 02:50:49;;;;;;;7.53;4.30;;;26.80;99.90;;;;;;5075028;28;20172;-69
2022/11/13 02:53:17;;;;;;;4.47;3.23;;;26.30;99.90;;;;;;5074950;28;20226;-68
2022/11/13 02:55:45;;;;;;;5.13;3.23;;;26.40;99.90;;;;;;5074803;28;20211;-70
2022/11/13 02:58:12;;;;;;;6.20;3.40;;;26.90;99.90;;;;;;5090433;28;20172;-70
2022/11/13 03:00:41;;;;;;;4.73;3.13;;;27.00;99.90;;;;;;5073680;28;20176;-69
2022/11/13 03:03:10;;;;;;;5.27;3.33;;;27.60;99.90;;;;;;5074648;28;20190;-69
2022/11/13 03:05:38;;;;;;;6.23;3.20;;;28.10;99.90;;;;;;5074684;28;20270;-69
2022/11/13 03:08:06;;;;;;;3.73;2.93;;;28.10;99.90;;;;;;5074679;28;20168;-70
2022/11/13 03:10:34;;;;;;;4.87;3.37;;;28.10;99.90;;;;;;5090266;28;20180;-69
2022/11/13 03:13:02;;;;;;;3.80;2.73;;;27.90;99.90;;;;;;5074550;28;20196;-70
2022/11/13 03:15:30;;;;;;;5.33;2.90;;;27.60;99.90;;;;;;5074315;28;20211;-69
2022/11/13 03:18:01;;;;;;;4.33;2.60;;;27.50;99.90;;;;;;5073106;28;20263;-70
2022/11/13 03:20:29;;;;;;;4.73;2.93;;;27.50;99.90;;;;;;5074476;28;20200;-69
2022/11/13 03:22:57;;;;;;;5.80;3.30;;;27.30;99.90;;;;;;5074244;28;20198;-69
2022/11/13 03:25:25;;;;;;;3.30;2.70;;;27.30;99.90;;;;;;5074084;28;20219;-70
2022/11/13 03:27:55;;;;;;;5.90;2.97;;;27.40;99.90;;;;;;5068019;28;20177;-70
2022/11/13 03:30:23;;;;;;;5.80;2.67;;;27.80;99.90;;;;;;5053645;28;20598;-70
2022/11/13 03:32:55;;;;;;;3.00;2.63;;;28.00;99.90;;;;;;5053739;28;20187;-69
2022/11/13 03:35:23;;;;;;;3.00;2.23;;;27.80;99.90;;;;;;5050186;28;20219;-69
2022/11/13 03:37:51;;;;;;;3.37;2.50;;;27.50;99.90;;;;;;5053956;28;20172;-69
2022/11/13 03:40:19;;;;;;;3.03;2.33;;;27.20;99.90;;;;;;5053974;28;20657;-69
2022/11/13 03:42:47;;;;;;;4.90;2.77;;;27.00;99.90;;;;;;5053379;28;20202;-69
2022/11/13 03:45:15;;;;;;;10.30;3.07;;;26.90;99.90;;;;;;5054002;28;20619;-69
2022/11/13 03:47:43;;;;;;;4.40;2.30;;;26.90;99.90;;;;;;5053977;28;20262;-69
2022/11/13 03:50:10;;;;;;;5.23;2.20;;;26.80;99.90;;;;;;5054098;28;20537;-69
2022/11/13 03:52:38;;;;;;;3.07;2.40;;;26.70;99.90;;;;;;5054090;28;20187;-70
2022/11/13 03:55:06;;;;;;;5.60;2.70;;;26.80;99.90;;;;;;5054103;28;20297;-70
2022/11/13 03:57:34;;;;;;;5.20;2.93;;;26.70;99.90;;;;;;5053866;28;20239;-69
2022/11/13 04:00:02;;;;;;;4.10;2.57;;;26.70;99.90;;;;;;5053854;28;20181;-70
2022/11/13 04:02:30;;;;;;;4.47;2.67;;;26.80;99.90;;;;;;5054111;28;20236;-70
2022/11/13 04:04:58;;;;;;;5.83;3.77;;;26.70;99.90;;;;;;5053759;28;20176;-67
2022/11/13 04:07:26;;;;;;;5.20;2.80;;;26.70;99.90;;;;;;5054016;28;20567;-67
2022/11/13 04:09:53;;;;;;;7.33;3.20;;;26.60;99.90;;;;;;5053553;28;20173;-70
2022/11/13 04:12:22;;;;;;;3.90;2.83;;;26.70;99.90;;;;;;5053551;28;20220;-68
2022/11/13 04:14:50;;;;;;;3.87;2.23;;;26.90;99.90;;;;;;5053537;28;20208;-70
2022/11/13 04:17:18;;;;;;;5.03;2.67;;;26.90;99.90;;;;;;5053224;28;20233;-69
2022/11/13 04:19:46;;;;;;;4.53;2.33;;;26.80;99.90;;;;;;5053333;28;20179;-71
2022/11/13 04:22:14;;;;;;;5.10;2.43;;;26.90;99.90;;;;;;5053361;28;20191;-69
2022/11/13 04:24:41;;;;;;;9.87;2.70;;;26.80;99.90;;;;;;5053300;28;20184;-69
2022/11/13 04:27:09;;;;;;;3.63;1.87;;;26.90;99.90;;;;;;5053436;28;20650;-70
2022/11/13 04:29:37;;;;;;;4.70;2.17;;;26.90;99.90;;;;;;5052975;28;20530;-70
2022/11/13 04:32:05;;;;;;;3.40;1.77;;;27.30;99.90;;;;;;5053610;28;20531;-69
2022/11/13 04:34:34;;;;;;;5.50;2.10;;;27.30;99.90;;;;;;5053387;28;20259;-69
2022/11/13 04:37:02;;;;;;;6.03;1.70;;;27.30;99.90;;;;;;5051965;28;20192;-69
2022/11/13 04:39:30;;;;;;;3.60;1.80;;;27.50;99.90;;;;;;5053304;28;20169;-70
2022/11/13 04:44:44;;;;;;;2.87;2.00;;;27.80;99.90;;;;;;5052737;28;20661;-69
2022/11/13 04:47:15;;;;;;;2.13;1.47;;;27.50;99.90;;;;;;5052979;28;20181;-70
2022/11/13 04:49:43;;;;;;;4.03;1.80;;;27.50;99.90;;;;;;5053170;28;20209;-70
2022/11/13 04:52:11;;;;;;;3.13;1.30;;;27.30;99.90;;;;;;5051999;28;20275;-68
2022/11/13 04:54:42;;;;;;;3.80;1.70;;;27.30;99.90;;;;;;5053299;28;20204;-68
2022/11/13 04:57:13;;;;;;;12.20;2.00;;;27.20;99.90;;;;;;5052941;28;20239;-69
2022/11/13 04:59:41;;;;;;;3.53;1.33;;;27.10;99.90;;;;;;5052973;28;20717;-69
2022/11/13 05:02:08;;;;;;;5.27;1.67;;;27.10;99.90;;;;;;5052508;28;20246;-69
2022/11/13 05:04:36;;;;;;;15.93;1.77;;;27.20;99.90;;;;;;5052992;28;20177;-69
2022/11/13 05:07:04;;;;;;;3.70;1.13;;;27.30;99.90;;;;;;5068345;28;20177;-69
2022/11/13 05:09:32;;;;;;;4.00;1.40;;;26.90;99.90;;;;;;5052963;28;20180;-72
2022/11/13 05:12:00;;;;;;;3.57;1.10;;;27.20;99.90;;;;;;5051574;28;20276;-69
2022/11/13 05:14:28;;;;;;;3.47;1.27;;;26.80;99.90;;;;;;5052863;28;20181;-70
2022/11/13 05:16:56;;;;;;;3.17;1.40;;;26.60;99.90;;;;;;5052944;28;20231;-69
2022/11/13 05:19:24;;;;;;;2.17;1.10;;;26.50;99.90;;;;;;5053104;28;20238;-69
2022/11/13 05:21:51;;;;;;;4.07;1.43;;;26.80;99.90;;;;;;5052692;28;20173;-70
2022/11/13 05:24:19;;;;;;;2.20;1.20;;;26.50;99.90;;;;;;5054368;28;20173;-71
2022/11/13 05:26:47;;;;;;;4.07;1.50;;;26.60;99.90;;;;;;5056203;28;20176;-71
2022/11/13 05:29:15;;;;;;;2.43;1.33;;;26.60;99.90;;;;;;5072741;28;20240;-75
2022/11/13 05:31:43;;;;;;;4.57;1.47;;;26.50;99.90;;;;;;5079674;28;20188;-79
2022/11/13 05:34:14;;;;;;;3.30;1.60;;;26.40;99.90;;;;;;5081862;28;20259;-77
2022/11/13 05:36:45;;;;;;;4.60;1.37;;;26.50;99.90;;;;;;5081340;28;20199;-72
2022/11/13 05:39:13;;;;;;;2.20;1.23;;;26.30;99.90;;;;;;5083254;28;20191;-73
2022/11/13 05:41:41;;;;;;;6.73;1.50;;;26.10;99.90;;;;;;5083142;28;20246;-77
2022/11/13 05:44:09;;;;;;;5.17;1.63;;;26.20;99.90;;;;;;5071094;28;20188;-75
2022/11/13 05:46:37;;;;;;;3.97;1.20;;;26.20;99.90;;;;;;5080589;28;20180;-77
2022/11/13 05:49:09;;;;;;;3.33;1.30;;;26.10;99.90;;;;;;5096592;28;20313;-76
2022/11/13 05:51:38;;;;;;;1.63;1.20;;;26.00;99.90;;;;;;5083112;28;20182;-77
2022/11/13 05:54:06;;;;;;;1.53;1.33;;;26.00;99.90;;;;;;5080160;28;20173;-77
2022/11/13 05:56:36;;;;;;;7.30;1.57;;;25.90;99.90;;;;;;5096443;28;20688;-78
2022/11/13 05:59:04;;;;;;;2.13;1.50;;;25.90;99.90;;;;;;5096510;28;20184;-78
2022/11/13 06:01:38;;;;;;;8.13;1.63;;;25.80;99.90;;;;;;5072518;28;20277;-73
2022/11/13 06:04:07;;;;;;;3.43;1.57;;;26.00;99.90;;;;;;5058679;28;20226;-75
2022/11/13 06:06:35;;;;;;;3.73;1.47;;;26.30;99.90;;;;;;5058756;28;20197;-71
2022/11/13 06:09:05;;;;;;;1.63;1.33;;;26.40;99.90;;;;;;5053877;28;20188;-77
2022/11/13 06:11:33;;;;;;;2.87;2.30;;;26.50;99.90;;;;;;5056423;28;20177;-75
2022/11/13 06:14:02;;;;;;;1.80;1.30;;;26.40;99.90;;;;;;5058738;28;20165;-77
2022/11/13 06:16:35;;;;;;;2.30;1.30;;;26.30;99.90;;;;;;5058033;28;20662;-77
2022/11/13 06:19:06;;;;;;;6.43;1.63;;;26.10;99.90;;;;;;5059956;28;20177;-78
2022/11/13 06:21:37;;;;;;;2.57;2.03;;;26.00;99.90;;;;;;5057760;28;20169;-73
2022/11/13 06:24:05;;;;;;;5.57;2.13;;;26.00;99.90;;;;;;5070178;28;20257;-76
2022/11/13 06:26:36;;;;;;;2.30;1.37;;;26.00;99.90;;;;;;5057713;28;20546;-79
2022/11/13 06:29:05;;;;;;;2.57;1.73;;;25.80;99.90;;;;;;5059735;28;20188;-76
2022/11/13 06:31:35;;;;;;;4.33;1.40;;;25.80;99.90;;;;;;5059876;28;20263;-73
2022/11/13 06:34:07;;;;;;;3.33;1.67;;;25.70;99.90;;;;;;5056836;28;20285;-76
2022/11/13 06:36:37;;;;;;;3.13;1.63;;;25.60;99.90;;;;;;5076661;28;20223;-72
2022/11/13 06:39:10;;;;;;;3.23;1.33;;;25.60;99.90;;;;;;5062970;28;20239;-76
2022/11/13 06:41:38;;;;;;;2.03;1.50;;;25.40;99.90;;;;;;5065379;28;20180;-78
2022/11/13 06:44:06;;;;;;;6.03;1.90;;;25.30;99.90;;;;;;5062048;28;20505;-79
2022/11/13 06:46:34;;;;;;;3.83;1.67;;;25.30;99.90;;;;;;5057570;28;20164;-77
2022/11/13 06:49:04;;;;;;;2.13;1.27;;;25.20;99.90;;;;;;5057594;28;20260;-76
2022/11/13 06:51:32;;;;;;;4.83;1.87;;;25.20;99.90;;;;;;5057469;28;20543;-78
2022/11/13 06:54:01;;;;;;;14.70;1.93;;;25.10;99.90;;;;;;5058526;28;20247;-77
2022/11/13 06:56:36;;;;;;;5.97;1.87;;;25.00;99.90;;;;;;5057434;28;20578;-74
2022/11/13 06:59:04;;;;;;;3.10;1.67;;;25.00;99.90;;;;;;5057434;28;20525;-74
2022/11/13 07:01:32;;;;;;;2.63;1.93;;;25.00;99.90;;;;;;5057033;28;20311;-72
2022/11/13 07:04:04;;;;;;;4.20;1.47;;;25.00;99.90;;;;;;5054965;28;20191;-75
2022/11/13 07:06:32;;;;;;;5.00;1.83;;;24.90;99.90;;;;;;5063405;28;20179;-72
2022/11/13 07:09:04;;;;;;;5.20;1.80;;;24.90;99.90;;;;;;5075849;28;20259;-75
2022/11/13 07:11:32;;;;;;;3.00;1.80;;;24.90;99.90;;;;;;5081107;28;20719;-74
2022/11/13 07:14:01;;;;;;;3.70;1.80;;;24.80;99.90;;;;;;5082707;28;20184;-75
2022/11/13 07:16:29;;;;;;;6.07;1.70;;;24.70;99.90;;;;;;5075315;28;20219;-72
2022/11/13 07:18:57;;;;;;;4.13;1.90;;;24.70;99.90;;;;;;5074184;28;20172;-72
2022/11/13 07:21:25;;;;;;;2.97;1.93;;;24.60;99.90;;;;;;5073950;28;20186;-72
2022/11/13 07:23:53;;;;;;;3.93;2.00;;;24.60;99.90;;;;;;5072386;28;20199;-72
2022/11/13 07:26:21;;;;;;;7.07;1.60;;;24.50;99.90;;;;;;5056423;28;20222;-77
2022/11/13 07:28:49;;;;;;;6.37;1.77;;;24.50;99.90;;;;;;5059924;28;20192;-74
2022/11/13 07:31:18;;;;;;;3.00;1.70;;;24.50;99.90;;;;;;5077534;28;20187;-71
2022/11/13 07:33:49;;;;;;;3.63;1.53;;;24.50;99.90;;;;;;5054669;28;20270;-74
2022/11/13 07:36:23;;;;;;;2.77;1.87;;;24.40;99.90;;;;;;5054326;28;20218;-71
2022/11/13 07:38:55;;;;;;;5.23;2.27;;;24.40;99.90;;;;;;5052792;28;20191;-72
2022/11/13 07:41:23;;;;;;;3.83;1.87;;;24.40;99.90;;;;;;5054087;28;20229;-72
2022/11/13 07:43:51;;;;;;;3.17;1.53;;;24.40;99.90;;;;;;5054737;28;20176;-74
2022/11/13 07:46:18;;;;;;;5.10;2.00;;;24.30;99.90;;;;;;5055837;28;20191;-71
2022/11/13 07:48:46;;;;;;;3.93;2.10;;;24.20;99.90;;;;;;5075990;28;20186;-77
2022/11/13 07:51:14;;;;;;;8.03;2.00;;;24.20;99.90;;;;;;5075308;28;20212;-76
2022/11/13 07:53:42;;;;;;;2.13;1.73;;;24.20;99.90;;;;;;5076423;28;20168;-76
2022/11/13 07:56:10;;;;;;;4.50;2.13;;;24.30;99.90;;;;;;5077606;28;20588;-73
2022/11/13 07:58:40;;;;;;;6.00;2.20;;;24.30;99.90;;;;;;5076266;28;20183;-77
2022/11/13 08:01:09;;;;;;;3.93;2.20;;;24.30;99.90;;;;;;5074961;28;20219;-73
2022/11/13 08:03:37;;;;;;;3.97;2.00;;;24.20;99.90;;;;;;5076300;28;20181;-76
2022/11/13 08:06:07;;;;;;;3.20;1.70;;;24.10;99.90;;;;;;5091440;28;20208;-78
2022/11/13 08:08:35;;;;;;;6.13;2.40;;;24.10;99.90;;;;;;5074070;28;20217;-73
2022/11/13 08:11:08;;;;;;;4.10;2.07;;;24.00;99.90;;;;;;5073822;28;20589;-72
2022/11/13 08:13:37;;;;;;;3.33;1.90;;;23.90;99.90;;;;;;5075278;28;20186;-72
2022/11/13 08:16:05;;;;;;;2.80;2.13;;;23.80;99.90;;;;;;5041170;28;20226;-71
2022/11/13 08:18:33;;;;;;;5.73;2.33;;;23.70;99.90;;;;;;5069734;28;20671;-78
2022/11/13 08:21:04;;;;;;;4.17;2.50;;;23.60;99.90;;;;;;5055223;28;20187;-77
2022/11/13 08:23:40;;;;;;;4.97;2.10;;;23.60;99.90;;;;;;5057936;28;20184;-75
2022/11/13 08:26:09;;;;;;;4.43;2.10;;;23.40;99.90;;;;;;5043055;28;20192;-74
2022/11/13 08:28:38;;;;;;;4.87;2.30;;;23.30;99.90;;;;;;5082728;28;20188;-75
2022/11/13 08:31:11;;;;;;;5.87;2.70;;;23.10;99.90;;;;;;5083022;28;20184;-83
2022/11/13 08:33:40;;;;;;;4.17;2.17;;;22.90;99.90;;;;;;5092283;28;20710;-78
2022/11/13 08:36:09;;;;;;;6.23;2.27;;;22.80;99.90;;;;;;5049054;28;20254;-79
2022/11/13 08:38:37;;;;;;;3.97;2.33;;;22.60;99.90;;;;;;5071321;28;20230;-79
2022/11/13 08:41:06;;;;;;;3.07;1.83;;;22.60;99.90;;;;;;5082158;28;20199;-77
2022/11/13 08:43:33;;;;;;;3.80;2.10;;;22.50;99.90;;;;;;5076548;28;20642;-80
2022/11/13 08:46:01;;;;;;;4.00;2.30;;;22.40;99.90;;;;;;5075349;28;20222;-79
2022/11/13 08:48:29;;;;;;;4.90;2.50;;;22.30;99.90;;;;;;5090044;28;20647;-80
2022/11/13 08:50:58;;;;;;;6.43;2.60;;;22.20;99.90;;;;;;5072417;28;20249;-77
2022/11/13 08:56:49;;;;;;;7.60;2.67;;;22.10;99.90;;;;;;5073478;28;20651;-80
2022/11/13 08:59:17;;;;;;;4.97;2.30;;;22.10;99.90;;;;;;5076304;28;20539;-80
2022/11/13 09:01:47;;;;;;;3.63;2.30;;;22.00;99.90;;;;;;5077653;28;20692;-78
2022/11/13 09:04:16;;;;;;;2.50;1.83;;;22.00;99.90;;;;;;5079211;28;20514;-78
2022/11/13 09:06:43;;;;;;;5.20;2.50;;;21.90;99.90;;;;;;5077730;28;20178;-80
2022/11/13 09:09:11;;;;;;;3.73;2.50;;;21.90;99.90;;;;;;5077317;28;20656;-78
2022/11/13 09:11:39;;;;;;;6.67;2.70;;;21.90;99.90;;;;;;5078413;28;20711;-78
2022/11/13 09:14:07;;;;;;;2.77;2.20;;;21.90;99.90;;;;;;5094688;28;20191;-79
2022/11/13 09:16:34;;;;;;;5.23;2.27;;;21.90;99.90;;;;;;5078089;28;20257;-78
2022/11/13 09:19:03;;;;;;;3.60;2.37;;;22.00;99.90;;;;;;5077531;28;20183;-79
2022/11/13 09:21:32;;;;;;;4.47;2.70;;;22.00;99.90;;;;;;5079153;28;20551;-78
2022/11/13 09:24:00;;;;;;;6.00;2.40;;;21.90;99.90;;;;;;5079606;28;20832;-79
2022/11/13 09:26:27;;;;;;;4.73;2.50;;;22.00;99.90;;;;;;5079547;28;20264;-78
2022/11/13 09:28:55;;;;;;;4.03;2.33;;;22.00;99.90;;;;;;5079630;28;20191;-78
2022/11/13 09:31:27;;;;;;;5.73;2.20;;;22.00;99.90;;;;;;5079244;28;20293;-78
2022/11/13 09:33:55;;;;;;;7.83;2.27;;;22.00;99.90;;;;;;5076605;28;20180;-77
2022/11/13 09:36:22;;;;;;;4.73;2.40;;;21.90;99.90;;;;;;5091138;28;20707;-78
2022/11/13 09:38:51;;;;;;;3.83;2.37;;;21.90;99.90;;;;;;5075771;28;20269;-79
2022/11/13 09:41:27;;;;;;;8.27;2.80;;;21.90;99.90;;;;;;5075756;28;20217;-77
2022/11/13 09:44:00;;;;;;;3.43;2.27;;;22.00;99.90;;;;;;5075379;28;20184;-74
2022/11/13 09:46:45;;;;;;;4.00;2.17;;;22.00;99.90;;;;;;5075476;28;20201;-77
2022/11/13 09:49:21;;;;;;;7.90;2.33;;;22.00;99.90;;;;;;5075693;28;20571;-77
2022/11/13 09:51:54;;;;;;;3.17;2.17;;;22.00;99.90;;;;;;5075938;28;20187;-77
2022/11/13 09:54:23;;;;;;;4.03;1.90;;;22.00;99.90;;;;;;5076210;28;20765;-77
2022/11/13 09:57:14;;;;;;;3.40;2.00;;;22.00;99.90;;;;;;5075340;28;20294;-78
2022/11/13 10:03:26;;;;;;;5.33;2.13;;;21.90;99.90;;;;;;5073555;28;20595;-76
2022/11/13 10:06:36;;;;;;;5.77;1.90;;;21.80;99.90;;;;;;5090252;28;20191;-78
2022/11/13 10:09:16;;;;;;;4.40;2.37;;;21.60;99.90;;;;;;5064047;28;20193;-78
2022/11/13 10:12:01;;;;;;;3.30;2.10;;;21.50;99.90;;;;;;5074870;28;20194;-77
2022/11/13 10:14:37;;;;;;;3.40;1.80;;;21.40;99.90;;;;;;5075048;28;20187;-78
2022/11/13 10:17:33;;;;;;;2.47;1.53;;;21.40;99.90;;;;;;5074658;28;20191;-75
2022/11/13 10:20:11;;;;;;;2.17;1.97;;;21.40;99.90;;;;;;5075306;28;20172;-78
2022/11/13 10:22:41;;;;;;;3.40;1.87;;;21.30;99.90;;;;;;5074693;28;20314;-78
2022/11/13 10:25:18;;;;;;;4.87;2.10;;;21.30;99.90;;;;;;5075178;28;20213;-74
2022/11/13 10:27:58;;;;;;;2.77;2.10;;;21.30;99.90;;;;;;5035516;28;20202;-78
2022/11/13 10:30:26;;;;;;;4.53;2.10;;;21.40;99.90;;;;;;5043718;28;20185;-78
2022/11/13 10:32:54;;;;;;;6.47;2.40;;;21.40;99.90;;;;;;5078600;28;20185;-79
2022/11/13 10:35:58;;;;;;;3.93;2.13;;;21.40;99.90;;;;;;5078464;28;20204;-78
2022/11/13 10:38:48;;;;;;;2.40;2.20;;;21.50;99.90;;;;;;5078682;28;20199;-79
2022/11/13 10:41:21;;;;;;;2.80;2.00;;;21.50;99.90;;;;;;5091333;28;20185;-76
2022/11/13 10:44:00;;;;;;;7.37;2.20;;;21.50;99.90;;;;;;5075169;28;20679;-79
2022/11/13 10:46:30;;;;;;;3.27;2.13;;;21.50;99.90;;;;;;5078917;28;20218;-78
2022/11/13 10:49:09;;;;;;;5.27;2.30;;;21.50;99.90;;;;;;5075429;28;20188;-78
2022/11/13 10:51:38;;;;;;;4.60;2.40;;;21.50;99.90;;;;;;5094650;28;20197;-79
2022/11/13 10:54:35;;;;;;;6.20;2.03;;;21.50;99.90;;;;;;5096319;28;20189;-77
2022/11/13 10:57:16;;;;;;;4.20;2.47;;;21.60;99.90;;;;;;5062895;28;20204;-78
2022/11/13 10:59:46;;;;;;;2.27;1.87;;;21.60;99.90;;;;;;5093627;28;20191;-78
2022/11/13 11:02:22;;;;;;;6.60;2.13;;;21.60;99.90;;;;;;5090181;28;20263;-79
2022/11/13 11:05:10;;;;;;;5.90;1.77;;;21.60;99.90;;;;;;5079044;28;20672;-79
2022/11/13 11:07:43;;;;;;;6.90;1.83;;;21.60;99.90;;;;;;5073558;28;20191;-77
2022/11/13 11:10:31;;;;;;;10.10;2.03;;;21.60;99.90;;;;;;5080262;28;20231;-71
2022/11/13 11:13:22;;;;;;;3.60;1.97;;;21.60;99.90;;;;;;5038995;28;20185;-77
2022/11/13 11:15:58;;;;;;;2.70;1.60;;;21.50;99.90;;;;;;5056123;28;20701;-79
2022/11/13 11:18:50;;;;;;;3.97;1.93;;;21.40;99.90;;;;;;5056522;28;20178;-80
2022/11/13 11:21:28;;;;;;;6.47;3.10;;;21.40;99.90;;;;;;5063776;28;20196;-77
2022/11/13 11:24:05;;;;;;;2.93;1.77;;;21.30;99.90;;;;;;5075082;28;20180;-77
2022/11/13 11:26:58;;;;;;;2.03;1.50;;;21.40;99.90;;;;;;5074407;28;20179;-80
2022/11/13 11:29:42;;;;;;;3.53;1.70;;;21.40;99.90;;;;;;5073244;28;20199;-78
2022/11/13 11:32:37;;;;;;;4.17;1.70;;;21.40;99.90;;;;;;5073074;28;20215;-80
2022/11/13 11:35:13;;;;;;;7.20;1.93;;;21.40;99.90;;;;;;5067306;28;20329;-79
2022/11/13 11:38:24;;;;;;;4.83;2.00;;;21.40;99.90;;;;;;5072879;28;20194;-79
2022/11/13 11:41:05;;;;;;;3.70;1.80;;;21.30;99.90;;;;;;5088777;28;20183;-80
2022/11/13 11:43:44;;;;;;;3.77;1.80;;;21.20;99.90;;;;;;5072888;28;20199;-80
2022/11/13 11:46:21;;;;;;;4.27;1.70;;;21.20;99.90;;;;;;5063758;28;20646;-79
2022/11/13 11:48:52;;;;;;;2.23;1.50;;;21.20;99.90;;;;;;5065740;28;20187;-78
2022/11/13 11:51:42;;;;;;;2.33;2.07;;;21.20;99.90;;;;;;5052314;28;20652;-80
2022/11/13 11:54:13;;;;;;;6.20;1.77;;;21.20;99.90;;;;;;5062283;28;20181;-79
2022/11/13 11:56:56;;;;;;;2.20;1.50;;;21.30;99.90;;;;;;5073588;28;20314;-79
2022/11/13 11:59:40;;;;;;;2.10;1.40;;;21.30;99.90;;;;;;5073055;28;20599;-79
2022/11/13 12:02:26;;;;;;;5.77;1.87;;;21.30;99.90;;;;;;5074611;28;20173;-79
2022/11/13 12:05:32;;;;;;;6.23;2.40;;;21.40;99.90;;;;;;5072710;28;20194;-78
2022/11/13 12:08:44;;;;;;;4.23;2.00;;;21.40;99.90;;;;;;4992335;28;20194;-79
2022/11/13 12:11:30;;;;;;;2.57;1.43;;;21.40;99.90;;;;;;5072809;28;20184;-79
2022/11/13 12:14:34;;;;;;;4.37;2.00;;;21.40;99.90;;;;;;5074863;28;20191;-79
2022/11/13 12:17:22;;;;;;;11.40;1.90;;;21.50;99.90;;;;;;5078290;28;20660;-79
2022/11/13 12:19:52;;;;;;;8.30;1.97;;;21.50;99.90;;;;;;5086009;28;20196;-78
2022/11/13 12:22:42;;;;;;;6.97;1.90;;;21.50;99.90;;;;;;5077127;28;20251;-80
2022/11/13 12:25:36;;;;;;;2.83;1.70;;;21.50;99.90;;;;;;5069196;28;20181;-79
2022/11/13 12:28:33;;;;;;;4.17;1.80;;;21.50;99.90;;;;;;5057297;28;20288;-80
2022/11/13 12:31:10;;;;;;;6.53;2.13;;;21.50;99.90;;;;;;5052723;28;20196;-80
2022/11/13 12:34:15;;;;;;;7.40;1.80;;;21.40;99.90;;;;;;5070335;28;20237;-79
2022/11/13 12:36:47;;;;;;;4.03;2.10;;;21.30;99.90;;;;;;5072208;28;20222;-79
2022/11/13 12:39:36;;;;;;;6.27;2.30;;;21.20;99.90;;;;;;5087939;28;20179;-78
2022/11/13 12:42:33;;;;;;;8.60;2.50;;;21.10;99.90;;;;;;5069726;28;20189;-80
2022/11/13 12:45:23;;;;;;;5.33;2.20;;;21.00;99.90;;;;;;5047267;28;20258;-80
2022/11/13 12:47:51;;;;;;;6.80;2.57;;;20.90;99.90;;;;;;5051984;28;20177;-76
2022/11/13 12:50:32;;;;;;;5.27;2.50;;;20.80;99.90;;;;;;5064555;28;20196;-77
2022/11/13 12:53:01;;;;;;;10.83;2.50;;;20.70;99.90;;;;;;5072355;28;20172;-78
2022/11/13 12:55:35;;;;;;;5.80;2.13;;;20.70;99.90;;;;;;5087387;28;20248;-80
2022/11/13 12:58:19;;;;;;;3.53;2.33;;;20.70;99.90;;;;;;5052881;28;20264;-80
2022/11/13 13:01:17;;;;;;;2.47;1.90;;;20.60;99.90;;;;;;5058211;28;20192;-78
2022/11/13 13:03:52;;;;;;;12.13;3.03;;;20.60;99.90;;;;;;5087170;28;20291;-80
2022/11/13 13:06:46;;;;;;;5.57;2.73;;;20.50;99.90;;;;;;5073385;28;20227;-80
2022/11/13 13:09:37;;;;;;;5.33;2.87;;;20.50;99.90;;;;;;5071954;28;20242;-81
2022/11/13 13:12:23;;;;;;;8.37;3.17;;;20.40;99.90;;;;;;5071798;28;20183;-78
2022/11/13 13:15:12;;;;;;;4.50;2.47;;;20.40;99.90;;;;;;5073057;28;20208;-79
2022/11/13 13:17:41;;;;;;;3.43;2.47;;;20.40;99.90;;;;;;5074924;28;20176;-77
2022/11/13 13:20:15;;;;;;;5.87;2.70;;;20.40;99.90;;;;;;5074714;28;20167;-77
2022/11/13 13:22:54;;;;;;;6.80;2.80;;;20.40;99.90;;;;;;5088667;28;20270;-75